createdAt,value
2019-05-22T00:01:45.023Z,14.20
2019-05-22T00:04:39.626Z,14.20
2019-05-22T00:07:13.507Z,14.20
2019-05-22T00:09:49.922Z,14.20
2019-05-22T00:12:21.417Z,14.20
2019-05-22T00:14:53.584Z,14.20
2019-05-22T00:17:32.326Z,14.30
2019-05-22T00:20:05.630Z,14.20
2019-05-22T00:22:37.272Z,14.30
2019-05-22T00:25:12.037Z,14.30
2019-05-22T00:27:43.926Z,14.30
2019-05-22T00:30:16.806Z,14.30
2019-05-22T00:32:48.179Z,14.30
2019-05-22T00:35:24.189Z,14.30
2019-05-22T00:37:57.191Z,14.40
2019-05-22T00:40:29.464Z,14.30
2019-05-22T00:43:05.533Z,14.30
2019-05-22T00:45:33.633Z,14.40
2019-05-22T00:48:04.934Z,14.40
2019-05-22T00:50:45.016Z,14.40
2019-05-22T00:53:43.817Z,14.40
2019-05-22T00:56:28.574Z,14.50
2019-05-22T00:59:05.214Z,14.50
2019-05-22T01:01:44.853Z,14.50
2019-05-22T01:04:17.038Z,14.50
2019-05-22T01:06:48.815Z,14.50
2019-05-22T01:09:29.131Z,14.60
2019-05-22T01:12:00.804Z,14.60
2019-05-22T01:14:42.332Z,14.60
2019-05-22T01:17:08.080Z,14.60
2019-05-22T01:19:39.613Z,14.60
2019-05-22T01:22:11.234Z,14.60
2019-05-22T01:24:42.682Z,14.60
2019-05-22T01:27:14.257Z,14.60
2019-05-22T01:29:48.279Z,14.60
2019-05-22T01:32:26.963Z,14.60
2019-05-22T01:34:57.762Z,14.60
2019-05-22T01:37:28.379Z,14.60
2019-05-22T01:40:05.196Z,14.60
2019-05-22T01:42:41.498Z,14.60
2019-05-22T01:45:16.061Z,14.60
2019-05-22T01:48:00.322Z,14.60
2019-05-22T01:50:57.554Z,14.60
2019-05-22T01:53:36.153Z,14.60
2019-05-22T01:56:08.536Z,14.60
2019-05-22T01:58:42.507Z,14.60
2019-05-22T02:01:20.793Z,14.60
2019-05-22T02:03:54.773Z,14.60
2019-05-22T02:06:26.670Z,14.60
2019-05-22T02:09:24.751Z,14.70
2019-05-22T02:12:00.530Z,14.70
2019-05-22T02:14:31.884Z,14.70
2019-05-22T02:17:03.025Z,14.70
2019-05-22T02:19:33.898Z,14.70
2019-05-22T02:22:06.847Z,14.70
2019-05-22T02:24:39.312Z,14.60
2019-05-22T02:27:10.217Z,14.60
2019-05-22T02:29:41.772Z,14.70
2019-05-22T02:32:14.829Z,14.60
2019-05-22T02:34:46.286Z,14.70
2019-05-22T02:37:17.561Z,14.60
2019-05-22T02:39:49.065Z,14.70
2019-05-22T02:42:25.963Z,14.70
2019-05-22T02:44:56.868Z,14.70
2019-05-22T02:47:28.524Z,14.70
2019-05-22T02:49:59.644Z,14.70
2019-05-22T02:52:30.716Z,14.70
2019-05-22T02:55:02.198Z,14.70
2019-05-22T02:57:33.016Z,14.70
2019-05-22T03:00:05.140Z,14.70
2019-05-22T03:02:41.179Z,14.70
2019-05-22T03:05:15.308Z,14.70
2019-05-22T03:07:47.428Z,14.80
2019-05-22T03:10:20.340Z,14.80
2019-05-22T03:12:51.790Z,14.70
2019-05-22T03:15:26.258Z,14.80
2019-05-22T03:18:05.025Z,14.80
2019-05-22T03:20:35.910Z,14.80
2019-05-22T03:23:34.560Z,14.80
2019-05-22T03:26:08.255Z,14.80
2019-05-22T03:28:41.058Z,14.80
2019-05-22T03:31:12.820Z,14.80
2019-05-22T03:33:44.643Z,14.80
2019-05-22T03:36:21.161Z,14.80
2019-05-22T03:38:53.113Z,14.80
2019-05-22T03:41:24.089Z,14.80
2019-05-22T03:43:56.203Z,14.80
2019-05-22T03:46:38.215Z,14.80
2019-05-22T03:49:28.188Z,14.80
2019-05-22T03:51:45.520Z,14.80
2019-05-22T03:54:17.713Z,14.80
2019-05-22T03:56:49.041Z,14.90
2019-05-22T03:59:23.473Z,15.00
2019-05-22T04:01:55.746Z,15.10
2019-05-22T04:04:39.868Z,15.20
2019-05-22T04:07:19.296Z,15.30
2019-05-22T04:09:52.695Z,15.50
2019-05-22T04:12:23.719Z,15.60
2019-05-22T04:14:54.252Z,15.60
2019-05-22T04:17:26.887Z,15.70
2019-05-22T04:19:59.265Z,15.80
2019-05-22T04:22:30.443Z,15.80
2019-05-22T04:25:01.243Z,15.90
2019-05-22T04:27:32.882Z,15.80
2019-05-22T04:30:06.381Z,15.80
2019-05-22T04:32:39.741Z,15.90
2019-05-22T04:35:13.277Z,16.00
2019-05-22T04:37:44.646Z,15.80
2019-05-22T04:40:56.886Z,15.90
2019-05-22T04:43:32.140Z,15.90
2019-05-22T04:46:08.476Z,16.30
2019-05-22T04:48:39.082Z,16.10
2019-05-22T04:51:31.007Z,16.10
2019-05-22T04:54:04.722Z,15.80
2019-05-22T04:56:35.292Z,15.60
2019-05-22T04:59:06.844Z,15.60
2019-05-22T05:01:37.522Z,15.40
2019-05-22T05:04:10.185Z,15.50
2019-05-22T05:06:41.227Z,15.50
2019-05-22T05:09:15.891Z,15.50
2019-05-22T05:11:48.539Z,15.60
2019-05-22T05:14:21.816Z,15.40
2019-05-22T05:16:53.676Z,15.50
2019-05-22T05:19:24.209Z,15.50
2019-05-22T05:21:54.812Z,15.40
2019-05-22T05:24:26.323Z,15.20
2019-05-22T05:26:56.874Z,15.40
2019-05-22T05:29:29.669Z,15.50
2019-05-22T05:32:00.843Z,15.50
2019-05-22T05:34:54.897Z,15.50
2019-05-22T05:37:27.543Z,15.60
2019-05-22T05:40:38.209Z,15.50
2019-05-22T05:43:12.023Z,15.50
2019-05-22T05:45:43.921Z,15.40
2019-05-22T05:48:23.421Z,15.30
2019-05-22T05:51:29.191Z,15.30
2019-05-22T05:54:03.916Z,15.10
2019-05-22T05:56:37.464Z,15.10
2019-05-22T05:59:09.369Z,15.20
2019-05-22T06:01:46.101Z,15.20
2019-05-22T06:04:39.039Z,15.20
2019-05-22T06:07:26.758Z,15.10
2019-05-22T06:10:42.624Z,15.20
2019-05-22T06:13:13.689Z,15.20
2019-05-22T06:16:24.022Z,15.20
2019-05-22T06:18:57.183Z,15.40
2019-05-22T06:21:28.001Z,15.30
2019-05-22T06:24:21.336Z,15.40
2019-05-22T06:27:02.472Z,15.40
2019-05-22T06:29:42.920Z,15.40
2019-05-22T06:32:55.783Z,15.50
2019-05-22T06:35:32.783Z,15.60
2019-05-22T06:38:54.551Z,15.50
2019-05-22T06:41:31.747Z,15.50
2019-05-22T06:44:40.792Z,15.50
2019-05-22T06:47:20.090Z,15.60
2019-05-22T06:50:01.396Z,15.60
2019-05-22T06:52:32.048Z,15.90
2019-05-22T06:55:02.733Z,15.90
2019-05-22T06:57:34.662Z,15.90
2019-05-22T07:00:15.382Z,16.20
2019-05-22T07:02:47.169Z,16.00
2019-05-22T07:05:17.919Z,16.10
2019-05-22T07:07:48.874Z,15.90
2019-05-22T07:10:20.833Z,16.00
2019-05-22T07:12:51.888Z,16.10
2019-05-22T07:15:28.613Z,16.00
2019-05-22T07:17:59.582Z,16.10
2019-05-22T07:20:33.441Z,16.10
2019-05-22T07:23:06.017Z,16.20
2019-05-22T07:25:37.480Z,16.60
2019-05-22T07:28:09.807Z,17.20
2019-05-22T07:30:42.582Z,17.50
2019-05-22T07:33:14.034Z,16.80
2019-05-22T07:36:07.009Z,17.40
2019-05-22T07:38:19.313Z,17.20
2019-05-22T07:40:51.716Z,17.50
2019-05-22T07:43:24.515Z,17.40
2019-05-22T07:45:57.103Z,18.00
2019-05-22T07:48:29.093Z,18.50
2019-05-22T07:51:00.422Z,18.40
2019-05-22T07:53:31.223Z,18.10
2019-05-22T07:56:05.415Z,18.40
2019-05-22T07:58:36.603Z,18.40
2019-05-22T08:01:08.058Z,18.90
2019-05-22T08:03:40.688Z,18.40
2019-05-22T08:06:11.842Z,18.40
2019-05-22T08:08:44.796Z,18.20
2019-05-22T08:11:16.017Z,17.60
2019-05-22T08:13:47.293Z,17.60
2019-05-22T08:16:18.280Z,18.60
2019-05-22T08:18:49.018Z,18.40
2019-05-22T08:21:23.441Z,18.10
2019-05-22T08:23:55.885Z,18.40
2019-05-22T08:26:28.347Z,18.00
2019-05-22T08:29:01.082Z,18.00
2019-05-22T08:31:32.335Z,18.10
2019-05-22T08:34:03.038Z,18.60
2019-05-22T08:36:38.472Z,18.60
2019-05-22T08:39:10.050Z,18.80
2019-05-22T08:41:43.483Z,18.80
2019-05-22T08:44:17.617Z,18.90
2019-05-22T08:46:48.263Z,18.70
2019-05-22T08:49:19.615Z,18.60
2019-05-22T08:51:50.504Z,18.60
2019-05-22T08:54:21.743Z,18.50
2019-05-22T08:56:54.023Z,17.70
2019-05-22T08:59:25.193Z,18.10
2019-05-22T09:01:56.152Z,18.40
2019-05-22T09:04:27.075Z,18.60
2019-05-22T09:06:57.728Z,18.40
2019-05-22T09:09:28.727Z,18.30
2019-05-22T09:11:59.877Z,18.10
2019-05-22T09:14:30.703Z,17.90
2019-05-22T09:17:01.722Z,18.00
2019-05-22T09:19:32.273Z,18.30
2019-05-22T09:22:02.710Z,18.50
2019-05-22T09:24:34.674Z,19.00
2019-05-22T09:27:05.701Z,19.20
2019-05-22T09:29:36.415Z,18.90
2019-05-22T09:32:08.100Z,19.30
2019-05-22T09:34:39.218Z,19.40
2019-05-22T09:37:10.194Z,19.40
2019-05-22T09:39:44.103Z,19.40
2019-05-22T09:42:15.261Z,19.00
2019-05-22T09:44:45.745Z,18.90
2019-05-22T09:47:16.761Z,19.40
2019-05-22T09:49:47.405Z,19.20
2019-05-22T09:52:18.349Z,19.10
2019-05-22T09:54:48.965Z,18.90
2019-05-22T09:57:19.691Z,18.70
2019-05-22T09:59:50.455Z,18.70
2019-05-22T10:02:21.530Z,18.90
2019-05-22T10:04:52.116Z,19.20
2019-05-22T10:07:23.196Z,19.20
2019-05-22T10:09:53.680Z,19.30
2019-05-22T10:12:24.608Z,18.90
2019-05-22T10:14:55.149Z,18.80
2019-05-22T10:17:25.673Z,18.90
2019-05-22T10:19:56.906Z,18.80
2019-05-22T10:22:32.096Z,18.90
2019-05-22T10:25:15.068Z,19.30
2019-05-22T10:27:35.103Z,19.00
2019-05-22T10:30:07.117Z,19.30
2019-05-22T10:32:37.760Z,19.20
2019-05-22T10:35:09.481Z,19.30
2019-05-22T10:37:40.314Z,19.50
2019-05-22T10:40:12.072Z,19.50
2019-05-22T10:42:44.945Z,19.40
2019-05-22T10:45:16.566Z,20.00
2019-05-22T10:47:49.234Z,19.90
2019-05-22T10:50:20.246Z,19.70
2019-05-22T10:52:54.398Z,19.20
2019-05-22T10:55:24.342Z,19.10
2019-05-22T10:57:54.967Z,18.90
2019-05-22T11:00:26.152Z,19.00
2019-05-22T11:02:58.485Z,19.20
2019-05-22T11:05:29.138Z,19.60
2019-05-22T11:08:00.758Z,19.60
2019-05-22T11:10:31.307Z,19.60
2019-05-22T11:13:01.884Z,19.80
2019-05-22T11:15:33.055Z,19.80
2019-05-22T11:18:04.958Z,19.50
2019-05-22T11:20:35.547Z,18.90
2019-05-22T11:23:07.398Z,18.60
2019-05-22T11:25:38.179Z,18.50
2019-05-22T11:28:08.900Z,18.50
2019-05-22T11:30:40.492Z,18.40
2019-05-22T11:33:11.387Z,18.60
2019-05-22T11:35:42.162Z,18.70
2019-05-22T11:38:12.628Z,18.80
2019-05-22T11:40:43.528Z,18.60
2019-05-22T11:43:15.066Z,18.60
2019-05-22T11:45:45.921Z,18.60
2019-05-22T11:48:16.864Z,18.40
2019-05-22T11:50:47.836Z,18.20
2019-05-22T11:53:18.880Z,18.30
2019-05-22T11:55:49.920Z,18.20
2019-05-22T11:58:21.074Z,18.30
2019-05-22T12:00:53.537Z,18.40
2019-05-22T12:03:24.811Z,18.20
2019-05-22T12:05:55.885Z,18.40
2019-05-22T12:08:26.999Z,18.30
2019-05-22T12:10:57.953Z,18.40
2019-05-22T12:13:28.972Z,18.60
2019-05-22T12:16:00.858Z,18.50
2019-05-22T12:18:31.616Z,18.60
2019-05-22T12:21:03.620Z,18.80
2019-05-22T12:23:34.788Z,18.60
2019-05-22T12:26:08.307Z,18.50
2019-05-22T12:28:39.167Z,18.20
2019-05-22T12:31:10.172Z,18.00
2019-05-22T12:33:40.988Z,18.00
2019-05-22T12:36:13.897Z,18.20
2019-05-22T12:38:44.722Z,17.90
2019-05-22T12:41:17.621Z,17.90
2019-05-22T12:43:48.263Z,17.90
2019-05-22T12:46:20.755Z,17.90
2019-05-22T12:48:51.319Z,18.00
2019-05-22T12:51:23.066Z,18.00
2019-05-22T12:53:54.863Z,18.50
2019-05-22T12:56:25.592Z,18.30
2019-05-22T12:58:56.928Z,17.90
2019-05-22T13:01:29.896Z,17.70
2019-05-22T13:04:02.694Z,17.40
2019-05-22T13:06:37.068Z,17.20
2019-05-22T13:09:11.778Z,17.10
2019-05-22T13:11:42.842Z,17.10
2019-05-22T13:14:13.556Z,17.00
2019-05-22T13:16:48.785Z,16.80
2019-05-22T13:19:17.600Z,16.80
2019-05-22T13:21:52.317Z,16.80
2019-05-22T13:24:23.252Z,16.70
2019-05-22T13:26:54.593Z,16.30
2019-05-22T13:29:28.426Z,16.10
2019-05-22T13:31:59.817Z,15.90
2019-05-22T13:34:32.284Z,15.90
2019-05-22T13:37:03.900Z,15.80
2019-05-22T13:39:35.184Z,15.90
2019-05-22T13:42:05.844Z,15.90
2019-05-22T13:44:36.729Z,15.90
2019-05-22T13:47:07.533Z,15.90
2019-05-22T13:49:39.480Z,15.90
2019-05-22T13:52:10.191Z,15.90
2019-05-22T13:54:44.004Z,15.60
2019-05-22T13:57:14.785Z,15.30
2019-05-22T13:59:46.608Z,15.10
2019-05-22T14:02:17.995Z,15.20
2019-05-22T14:04:48.904Z,15.10
2019-05-22T14:07:19.796Z,15.00
2019-05-22T14:09:50.474Z,15.00
2019-05-22T14:12:21.294Z,14.90
2019-05-22T14:14:53.382Z,14.70
2019-05-22T14:17:23.933Z,14.40
2019-05-22T14:19:55.722Z,14.30
2019-05-22T14:22:26.346Z,14.30
2019-05-22T14:24:56.980Z,14.20
2019-05-22T14:27:28.767Z,14.10
2019-05-22T14:30:00.776Z,14.10
2019-05-22T14:32:31.754Z,14.00
2019-05-22T14:35:04.133Z,14.00
2019-05-22T14:37:35.046Z,14.00
2019-05-22T14:40:06.071Z,13.90
2019-05-22T14:42:37.188Z,13.80
2019-05-22T14:45:08.324Z,13.90
2019-05-22T14:47:38.883Z,13.80
2019-05-22T14:50:10.793Z,13.80
2019-05-22T14:52:42.167Z,13.80
2019-05-22T14:55:14.057Z,13.80
2019-05-22T14:57:45.165Z,13.80
2019-05-22T15:00:20.092Z,13.80
2019-05-22T15:02:55.287Z,13.70
2019-05-22T15:05:23.695Z,13.70
2019-05-22T15:07:54.260Z,13.70
2019-05-22T15:10:25.218Z,13.70
2019-05-22T15:12:56.851Z,13.60
2019-05-22T15:15:29.113Z,13.60
2019-05-22T15:17:59.675Z,13.40
2019-05-22T15:20:37.430Z,13.40
2019-05-22T15:23:08.340Z,13.40
2019-05-22T15:25:38.873Z,13.40
2019-05-22T15:28:09.946Z,13.30
2019-05-22T15:30:40.598Z,13.20
2019-05-22T15:33:13.045Z,13.20
2019-05-22T15:35:45.801Z,13.10
2019-05-22T15:38:16.998Z,13.20
2019-05-22T15:40:47.588Z,13.20
2019-05-22T15:43:18.381Z,13.10
2019-05-22T15:45:51.642Z,13.10
2019-05-22T15:48:33.901Z,13.10
2019-05-22T15:51:10.094Z,13.10
2019-05-22T15:53:44.282Z,13.10
2019-05-22T15:56:15.533Z,13.10
2019-05-22T15:58:50.446Z,13.10
2019-05-22T16:01:24.270Z,13.00
2019-05-22T16:03:56.463Z,12.90
2019-05-22T16:06:28.266Z,12.80
2019-05-22T16:09:01.480Z,12.80
2019-05-22T16:11:34.209Z,12.70
2019-05-22T16:14:07.811Z,12.70
2019-05-22T16:16:41.822Z,12.70
2019-05-22T16:19:13.471Z,12.70
2019-05-22T16:21:49.229Z,12.60
2019-05-22T16:24:20.051Z,12.60
2019-05-22T16:26:50.623Z,12.60
2019-05-22T16:29:24.711Z,12.60
2019-05-22T16:31:56.138Z,12.60
2019-05-22T16:34:28.537Z,12.60
2019-05-22T16:37:03.484Z,12.60
2019-05-22T16:39:32.477Z,12.60
2019-05-22T16:42:03.261Z,12.60
2019-05-22T16:44:34.024Z,12.60
2019-05-22T16:47:07.264Z,12.60
2019-05-22T16:49:39.917Z,12.50
2019-05-22T16:52:11.535Z,12.60
2019-05-22T16:54:43.429Z,12.50
2019-05-22T16:57:15.143Z,12.50
2019-05-22T16:59:46.183Z,12.50
2019-05-22T17:02:19.014Z,12.50
2019-05-22T17:04:51.105Z,12.50
2019-05-22T17:07:22.769Z,12.40
2019-05-22T17:09:54.981Z,12.40
2019-05-22T17:12:25.755Z,12.40
2019-05-22T17:14:57.447Z,12.40
2019-05-22T17:17:28.119Z,12.40
2019-05-22T17:19:58.981Z,12.40
2019-05-22T17:22:29.689Z,12.30
2019-05-22T17:25:01.308Z,12.40
2019-05-22T17:27:32.251Z,12.30
2019-05-22T17:30:03.445Z,12.40
2019-05-22T17:32:34.327Z,12.40
2019-05-22T17:35:06.722Z,12.40
2019-05-22T17:37:37.619Z,12.30
2019-05-22T17:40:10.585Z,12.30
2019-05-22T17:42:44.727Z,12.30
2019-05-22T17:45:20.709Z,12.30
2019-05-22T17:47:53.613Z,12.30
2019-05-22T17:50:27.635Z,12.30
2019-05-22T17:53:00.040Z,12.30
2019-05-22T17:55:31.637Z,12.30
2019-05-22T17:58:02.501Z,12.30
2019-05-22T18:00:40.855Z,12.30
2019-05-22T18:03:11.948Z,12.30
2019-05-22T18:05:42.890Z,12.30
2019-05-22T18:08:14.027Z,12.20
2019-05-22T18:10:49.655Z,12.20
2019-05-22T18:13:22.286Z,12.20
2019-05-22T18:15:53.680Z,12.30
2019-05-22T18:18:24.247Z,12.30
2019-05-22T18:20:54.910Z,12.20
2019-05-22T18:23:25.589Z,12.20
2019-05-22T18:25:56.105Z,12.20
2019-05-22T18:28:27.226Z,12.20
2019-05-22T18:30:57.844Z,12.20
2019-05-22T18:33:28.388Z,12.20
2019-05-22T18:35:59.349Z,12.20
2019-05-22T18:38:29.913Z,12.20
2019-05-22T18:41:00.823Z,12.20
2019-05-22T18:43:31.664Z,12.10
2019-05-22T18:46:03.310Z,12.10
2019-05-22T18:48:34.281Z,12.10
2019-05-22T18:51:06.348Z,12.10
2019-05-22T18:53:37.546Z,12.10
2019-05-22T18:56:10.840Z,12.10
2019-05-22T18:58:41.558Z,12.10
2019-05-22T19:01:12.230Z,12.20
2019-05-22T19:03:42.733Z,12.20
2019-05-22T19:06:13.679Z,12.10
2019-05-22T19:08:46.389Z,12.20
2019-05-22T19:11:17.157Z,12.20
2019-05-22T19:13:48.885Z,12.20
2019-05-22T19:16:19.800Z,12.10
2019-05-22T19:18:50.460Z,12.20
2019-05-22T19:21:21.255Z,12.20
2019-05-22T19:23:51.769Z,12.20
2019-05-22T19:26:23.597Z,12.20
2019-05-22T19:28:54.213Z,12.20
2019-05-22T19:31:25.436Z,12.20
2019-05-22T19:33:56.195Z,12.20
2019-05-22T19:36:27.749Z,12.20
2019-05-22T19:39:00.041Z,12.20
2019-05-22T19:41:31.099Z,12.20
2019-05-22T19:44:02.086Z,12.20
2019-05-22T19:46:33.123Z,12.20
2019-05-22T19:49:05.069Z,12.20
2019-05-22T19:51:36.875Z,12.20
2019-05-22T19:54:09.351Z,12.20
2019-05-22T19:56:40.770Z,12.20
2019-05-22T19:59:12.766Z,12.20
2019-05-22T20:01:43.660Z,12.20
2019-05-22T20:04:15.887Z,12.20
2019-05-22T20:06:50.343Z,12.20
2019-05-22T20:09:21.060Z,12.20
2019-05-22T20:11:52.784Z,12.20
2019-05-22T20:14:24.259Z,12.20
2019-05-22T20:16:55.050Z,12.10
2019-05-22T20:19:25.837Z,12.10
2019-05-22T20:22:00.350Z,12.10
2019-05-22T20:24:31.447Z,12.10
2019-05-22T20:27:09.334Z,12.10
2019-05-22T20:29:38.163Z,12.10
2019-05-22T20:32:12.296Z,12.10
2019-05-22T20:34:43.929Z,12.10
2019-05-22T20:37:14.644Z,12.10
2019-05-22T20:39:48.159Z,12.10
2019-05-22T20:42:18.807Z,12.10
2019-05-22T20:44:49.410Z,12.10
2019-05-22T20:47:24.415Z,12.10
2019-05-22T20:49:55.166Z,12.10
2019-05-22T20:52:27.517Z,12.10
2019-05-22T20:55:00.488Z,12.10
2019-05-22T20:57:32.674Z,12.10
2019-05-22T21:00:03.313Z,12.10
2019-05-22T21:02:37.248Z,12.10
2019-05-22T21:05:12.983Z,12.10
2019-05-22T21:07:51.679Z,12.10
2019-05-22T21:10:24.494Z,12.10
2019-05-22T21:12:55.773Z,12.10
2019-05-22T21:15:28.221Z,12.00
2019-05-22T21:17:59.374Z,12.00
2019-05-22T21:20:31.671Z,12.00
2019-05-22T21:23:04.471Z,12.00
2019-05-22T21:25:35.512Z,12.00
2019-05-22T21:28:06.924Z,12.00
2019-05-22T21:30:38.706Z,12.00
2019-05-22T21:33:09.411Z,12.00
2019-05-22T21:35:41.500Z,12.00
2019-05-22T21:38:16.208Z,12.00
2019-05-22T21:40:50.650Z,11.90
2019-05-22T21:43:21.278Z,11.90
2019-05-22T21:45:51.747Z,11.90
2019-05-22T21:48:22.686Z,11.90
2019-05-22T21:50:53.410Z,11.90
2019-05-22T21:53:26.225Z,11.90
2019-05-22T21:56:05.188Z,11.90
2019-05-22T21:58:30.602Z,11.90
2019-05-22T22:01:27.894Z,11.90
2019-05-22T22:04:06.128Z,11.90
2019-05-22T22:06:37.564Z,11.90
2019-05-22T22:09:08.970Z,11.90
2019-05-22T22:11:39.686Z,11.90
2019-05-22T22:14:12.586Z,11.90
2019-05-22T22:16:43.618Z,11.90
2019-05-22T22:19:15.147Z,11.90
2019-05-22T22:21:46.024Z,11.90
2019-05-22T22:24:19.258Z,11.90
2019-05-22T22:26:49.970Z,11.80
2019-05-22T22:29:20.837Z,11.90
2019-05-22T22:31:53.989Z,11.80
2019-05-22T22:34:35.684Z,11.90
2019-05-22T22:37:07.041Z,11.90
2019-05-22T22:39:41.936Z,11.90
2019-05-22T22:42:15.667Z,11.90
2019-05-22T22:44:50.105Z,11.90
2019-05-22T22:47:26.937Z,11.90
2019-05-22T22:49:57.828Z,11.80
2019-05-22T22:52:29.976Z,11.80
2019-05-22T22:55:01.752Z,11.70
2019-05-22T22:57:32.475Z,11.70
2019-05-22T23:00:03.568Z,11.70
2019-05-22T23:02:35.467Z,11.60
2019-05-22T23:05:07.334Z,11.60
2019-05-22T23:07:38.997Z,11.50
2019-05-22T23:10:12.460Z,11.50
2019-05-22T23:12:43.094Z,11.50
2019-05-22T23:15:19.010Z,11.50
2019-05-22T23:17:50.839Z,11.40
2019-05-22T23:20:21.248Z,11.40
2019-05-22T23:22:50.329Z,11.40
2019-05-22T23:25:21.368Z,11.40
2019-05-22T23:27:51.990Z,11.40
2019-05-22T23:30:22.852Z,11.30
2019-05-22T23:32:54.505Z,11.40
2019-05-22T23:35:26.604Z,11.30
2019-05-22T23:37:59.367Z,11.30
2019-05-22T23:40:37.558Z,11.30
2019-05-22T23:43:10.681Z,11.30
2019-05-22T23:45:42.493Z,11.30
2019-05-22T23:48:16.227Z,11.30
2019-05-22T23:50:48.465Z,11.30
2019-05-22T23:53:20.980Z,11.30
2019-05-22T23:55:51.452Z,11.30
2019-05-22T23:58:23.231Z,11.30
